sensor_id;sensor_type;location;lat;lon;timestamp;pressure;altitude;pressure_sealevel;temperature;humidity
15477;BME280;7840;42.702;23.296;2023-02-15T00:00:25;96294.91;;;1.35;100.00
15477;BME280;7840;42.702;23.296;2023-02-15T00:02:52;96293.47;;;1.41;100.00
15477;BME280;7840;42.702;23.296;2023-02-15T00:05:20;96301.47;;;1.40;100.00
15477;BME280;7840;42.702;23.296;2023-02-15T00:07:47;96303.59;;;1.44;100.00
15477;BME280;7840;42.702;23.296;2023-02-15T00:10:15;96297.34;;;1.37;100.00
15477;BME280;7840;42.702;23.296;2023-02-15T00:12:56;96301.63;;;1.38;100.00
15477;BME280;7840;42.702;23.296;2023-02-15T00:15:29;96303.25;;;1.31;100.00
15477;BME280;7840;42.702;23.296;2023-02-15T00:17:57;96320.38;;;1.33;100.00
15477;BME280;7840;42.702;23.296;2023-02-15T00:20:25;96312.50;;;1.25;100.00
15477;BME280;7840;42.702;23.296;2023-02-15T00:22:53;96311.53;;;1.26;100.00
15477;BME280;7840;42.702;23.296;2023-02-15T00:25:39;96305.84;;;1.31;100.00
15477;BME280;7840;42.702;23.296;2023-02-15T00:28:07;96303.88;;;1.25;100.00
15477;BME280;7840;42.702;23.296;2023-02-15T00:30:36;96301.91;;;1.27;100.00
15477;BME280;7840;42.702;23.296;2023-02-15T00:33:04;96308.28;;;1.32;100.00
15477;BME280;7840;42.702;23.296;2023-02-15T00:35:37;96313.81;;;1.29;100.00
15477;BME280;7840;42.702;23.296;2023-02-15T00:38:05;96318.91;;;1.31;100.00
15477;BME280;7840;42.702;23.296;2023-02-15T00:40:32;96317.91;;;1.32;100.00
15477;BME280;7840;42.702;23.296;2023-02-15T00:43:00;96318.91;;;1.31;100.00
15477;BME280;7840;42.702;23.296;2023-02-15T00:45:28;96314.31;;;1.25;100.00
15477;BME280;7840;42.702;23.296;2023-02-15T00:47:58;96310.09;;;1.32;100.00
15477;BME280;7840;42.702;23.296;2023-02-15T00:50:25;96317.56;;;1.27;100.00
15477;BME280;7840;42.702;23.296;2023-02-15T00:52:53;96314.44;;;1.23;100.00
15477;BME280;7840;42.702;23.296;2023-02-15T00:55:20;96308.09;;;1.18;100.00
15477;BME280;7840;42.702;23.296;2023-02-15T00:58:00;96310.34;;;1.13;100.00
15477;BME280;7840;42.702;23.296;2023-02-15T01:00:29;96312.69;;;1.24;100.00
15477;BME280;7840;42.702;23.296;2023-02-15T01:02:58;96312.34;;;1.27;100.00
15477;BME280;7840;42.702;23.296;2023-02-15T01:05:30;96312.34;;;1.27;100.00
15477;BME280;7840;42.702;23.296;2023-02-15T01:08:12;96315.09;;;1.17;100.00
15477;BME280;7840;42.702;23.296;2023-02-15T01:10:39;96310.00;;;1.16;100.00
15477;BME280;7840;42.702;23.296;2023-02-15T01:13:09;96312.28;;;1.11;100.00
15477;BME280;7840;42.702;23.296;2023-02-15T01:15:37;96303.59;;;1.02;100.00
15477;BME280;7840;42.702;23.296;2023-02-15T01:18:05;96295.28;;;0.98;100.00
15477;BME280;7840;42.702;23.296;2023-02-15T01:20:36;96295.56;;;0.95;100.00
15477;BME280;7840;42.702;23.296;2023-02-15T01:23:07;96294.44;;;0.90;100.00
15477;BME280;7840;42.702;23.296;2023-02-15T01:25:35;96305.34;;;0.93;100.00
15477;BME280;7840;42.702;23.296;2023-02-15T01:28:03;96303.00;;;0.82;100.00
15477;BME280;7840;42.702;23.296;2023-02-15T01:30:35;96290.84;;;0.91;100.00
15477;BME280;7840;42.702;23.296;2023-02-15T01:33:18;96294.72;;;0.87;100.00
15477;BME280;7840;42.702;23.296;2023-02-15T01:35:46;96297.19;;;0.88;100.00
15477;BME280;7840;42.702;23.296;2023-02-15T01:38:15;96290.94;;;0.81;100.00
15477;BME280;7840;42.702;23.296;2023-02-15T01:40:42;96287.69;;;0.79;100.00
15477;BME280;7840;42.702;23.296;2023-02-15T01:43:11;96286.41;;;0.83;100.00
15477;BME280;7840;42.702;23.296;2023-02-15T01:45:40;96286.13;;;0.94;100.00
15477;BME280;7840;42.702;23.296;2023-02-15T01:48:20;96279.91;;;0.87;100.00
15477;BME280;7840;42.702;23.296;2023-02-15T01:50:52;96280.22;;;0.84;100.00
15477;BME280;7840;42.702;23.296;2023-02-15T01:53:24;96271.28;;;0.95;100.00
15477;BME280;7840;42.702;23.296;2023-02-15T01:55:58;96275.69;;;0.94;100.00
15477;BME280;7840;42.702;23.296;2023-02-15T01:58:28;96276.00;;;0.91;100.00
15477;BME280;7840;42.702;23.296;2023-02-15T02:01:00;96272.06;;;0.87;100.00
15477;BME280;7840;42.702;23.296;2023-02-15T02:03:38;96262.66;;;0.94;100.00
15477;BME280;7840;42.702;23.296;2023-02-15T02:06:10;96272.69;;;0.81;100.00
15477;BME280;7840;42.702;23.296;2023-02-15T02:08:38;96272.22;;;0.86;100.00
15477;BME280;7840;42.702;23.296;2023-02-15T02:11:10;96272.44;;;0.92;100.00
15477;BME280;7840;42.702;23.296;2023-02-15T02:13:39;96276.66;;;0.93;100.00
15477;BME280;7840;42.702;23.296;2023-02-15T02:16:27;96278.97;;;0.96;100.00
15477;BME280;7840;42.702;23.296;2023-02-15T02:19:14;96277.13;;;0.89;100.00
15477;BME280;7840;42.702;23.296;2023-02-15T02:22:20;96278.06;;;0.79;100.00
15477;BME280;7840;42.702;23.296;2023-02-15T02:25:12;96281.84;;;0.85;100.00
15477;BME280;7840;42.702;23.296;2023-02-15T02:27:52;96288.63;;;0.70;100.00
15477;BME280;7840;42.702;23.296;2023-02-15T02:30:44;96285.69;;;0.73;100.00
15477;BME280;7840;42.702;23.296;2023-02-15T02:33:30;96282.53;;;0.95;100.00
15477;BME280;7840;42.702;23.296;2023-02-15T02:36:09;96287.44;;;0.98;100.00
15477;BME280;7840;42.702;23.296;2023-02-15T02:39:00;96286.63;;;0.98;100.00
15477;BME280;7840;42.702;23.296;2023-02-15T02:41:35;96288.63;;;1.04;100.00
15477;BME280;7840;42.702;23.296;2023-02-15T02:44:10;96283.25;;;1.05;100.00
15477;BME280;7840;42.702;23.296;2023-02-15T02:46:51;96281.44;;;1.06;100.00
15477;BME280;7840;42.702;23.296;2023-02-15T02:49:34;96285.75;;;0.89;100.00
15477;BME280;7840;42.702;23.296;2023-02-15T02:52:04;96283.34;;;0.96;100.00
15477;BME280;7840;42.702;23.296;2023-02-15T02:54:36;96292.34;;;1.01;100.00
15477;BME280;7840;42.702;23.296;2023-02-15T02:57:08;96291.03;;;0.97;100.00
15477;BME280;7840;42.702;23.296;2023-02-15T02:59:41;96295.19;;;0.82;100.00
15477;BME280;7840;42.702;23.296;2023-02-15T03:02:15;96299.53;;;0.99;100.00
15477;BME280;7840;42.702;23.296;2023-02-15T03:04:48;96290.09;;;1.06;100.00
15477;BME280;7840;42.702;23.296;2023-02-15T03:07:24;96302.88;;;1.18;100.00
15477;BME280;7840;42.702;23.296;2023-02-15T03:09:56;96299.28;;;1.19;100.00
15477;BME280;7840;42.702;23.296;2023-02-15T03:12:26;96301.56;;;1.22;100.00
15477;BME280;7840;42.702;23.296;2023-02-15T03:14:58;96298.00;;;1.31;100.00
15477;BME280;7840;42.702;23.296;2023-02-15T03:17:30;96307.16;;;1.43;100.00
15477;BME280;7840;42.702;23.296;2023-02-15T03:20:04;96309.59;;;1.36;100.00
15477;BME280;7840;42.702;23.296;2023-02-15T03:22:35;96303.59;;;1.44;100.00
15477;BME280;7840;42.702;23.296;2023-02-15T03:25:26;96302.28;;;1.40;100.00
15477;BME280;7840;42.702;23.296;2023-02-15T03:28:05;96300.31;;;1.42;100.00
15477;BME280;7840;42.702;23.296;2023-02-15T03:30:35;96308.81;;;1.44;100.00
15477;BME280;7840;42.702;23.296;2023-02-15T03:33:06;96306.53;;;1.49;100.00
15477;BME280;7840;42.702;23.296;2023-02-15T03:35:53;96306.50;;;1.41;100.00
15477;BME280;7840;42.702;23.296;2023-02-15T03:38:34;96308.16;;;1.50;100.00
15477;BME280;7840;42.702;23.296;2023-02-15T03:41:03;96296.09;;;1.49;100.00
15477;BME280;7840;42.702;23.296;2023-02-15T03:43:43;96300.00;;;1.45;100.00
15477;BME280;7840;42.702;23.296;2023-02-15T03:46:17;96302.13;;;1.50;100.00
15477;BME280;7840;42.702;23.296;2023-02-15T03:48:51;96295.16;;;1.67;100.00
15477;BME280;7840;42.702;23.296;2023-02-15T03:51:23;96294.47;;;1.64;100.00
15477;BME280;7840;42.702;23.296;2023-02-15T03:54:08;96308.19;;;1.58;100.00
15477;BME280;7840;42.702;23.296;2023-02-15T03:56:41;96296.13;;;1.66;100.00
15477;BME280;7840;42.702;23.296;2023-02-15T03:59:34;96300.22;;;1.68;100.00
15477;BME280;7840;42.702;23.296;2023-02-15T04:02:22;96306.53;;;1.57;100.00
15477;BME280;7840;42.702;23.296;2023-02-15T04:04:51;96298.59;;;1.67;100.00
15477;BME280;7840;42.702;23.296;2023-02-15T04:07:23;96299.41;;;1.68;100.00
15477;BME280;7840;42.702;23.296;2023-02-15T04:09:51;96308.84;;;1.60;100.00
15477;BME280;7840;42.702;23.296;2023-02-15T04:12:36;96303.81;;;1.67;100.00
15477;BME280;7840;42.702;23.296;2023-02-15T04:15:04;96313.75;;;1.63;100.00
15477;BME280;7840;42.702;23.296;2023-02-15T04:17:49;96316.38;;;1.72;100.00
15477;BME280;7840;42.702;23.296;2023-02-15T04:20:16;96317.88;;;1.82;100.00
15477;BME280;7840;42.702;23.296;2023-02-15T04:23:06;96326.50;;;1.67;100.00
15477;BME280;7840;42.702;23.296;2023-02-15T04:25:51;96332.38;;;1.69;100.00
15477;BME280;7840;42.702;23.296;2023-02-15T04:28:18;96325.34;;;1.77;100.00
15477;BME280;7840;42.702;23.296;2023-02-15T04:30:47;96331.41;;;1.78;100.00
15477;BME280;7840;42.702;23.296;2023-02-15T04:33:17;96341.88;;;1.86;100.00
15477;BME280;7840;42.702;23.296;2023-02-15T04:35:44;96341.19;;;1.84;100.00
15477;BME280;7840;42.702;23.296;2023-02-15T04:38:13;96342.19;;;1.83;100.00
15477;BME280;7840;42.702;23.296;2023-02-15T04:40:41;96343.28;;;1.64;100.00
15477;BME280;7840;42.702;23.296;2023-02-15T04:43:08;96346.41;;;1.68;100.00
15477;BME280;7840;42.702;23.296;2023-02-15T04:45:36;96345.78;;;1.74;100.00
15477;BME280;7840;42.702;23.296;2023-02-15T04:48:05;96339.22;;;1.78;100.00
15477;BME280;7840;42.702;23.296;2023-02-15T04:50:35;96337.94;;;1.82;100.00
15477;BME280;7840;42.702;23.296;2023-02-15T04:53:05;96338.91;;;1.73;100.00
15477;BME280;7840;42.702;23.296;2023-02-15T04:55:48;96348.72;;;1.79;100.00
15477;BME280;7840;42.702;23.296;2023-02-15T04:58:34;96339.56;;;1.83;100.00
15477;BME280;7840;42.702;23.296;2023-02-15T05:01:07;96351.03;;;1.98;100.00
15477;BME280;7840;42.702;23.296;2023-02-15T05:03:35;96355.94;;;2.01;100.00
15477;BME280;7840;42.702;23.296;2023-02-15T05:06:11;96352.66;;;1.91;100.00
15477;BME280;7840;42.702;23.296;2023-02-15T05:08:39;96356.09;;;2.00;100.00
15477;BME280;7840;42.702;23.296;2023-02-15T05:11:08;96356.28;;;2.06;100.00
15477;BME280;7840;42.702;23.296;2023-02-15T05:13:36;96357.88;;;1.91;100.00
15477;BME280;7840;42.702;23.296;2023-02-15T05:16:20;96370.13;;;1.99;100.00
15477;BME280;7840;42.702;23.296;2023-02-15T05:18:51;96372.63;;;2.16;100.00
15477;BME280;7840;42.702;23.296;2023-02-15T05:21:20;96368.03;;;2.10;100.00
15477;BME280;7840;42.702;23.296;2023-02-15T05:23:48;96374.56;;;2.06;100.00
15477;BME280;7840;42.702;23.296;2023-02-15T05:26:19;96373.59;;;2.07;100.00
15477;BME280;7840;42.702;23.296;2023-02-15T05:29:07;96368.03;;;2.02;100.00
15477;BME280;7840;42.702;23.296;2023-02-15T05:31:54;96380.75;;;1.97;100.00
15477;BME280;7840;42.702;23.296;2023-02-15T05:34:23;96385.63;;;1.92;100.00
15477;BME280;7840;42.702;23.296;2023-02-15T05:36:51;96378.47;;;1.94;100.00
15477;BME280;7840;42.702;23.296;2023-02-15T05:39:22;96390.22;;;1.98;100.00
15477;BME280;7840;42.702;23.296;2023-02-15T05:42:00;96395.94;;;2.02;100.00
15477;BME280;7840;42.702;23.296;2023-02-15T05:45:17;96397.41;;;1.96;100.00
15477;BME280;7840;42.702;23.296;2023-02-15T05:47:55;96396.13;;;2.08;100.00
15477;BME280;7840;42.702;23.296;2023-02-15T05:51:01;96395.25;;;1.91;100.00
15477;BME280;7840;42.702;23.296;2023-02-15T05:53:31;96394.78;;;1.88;100.00
15477;BME280;7840;42.702;23.296;2023-02-15T05:55:59;96394.78;;;1.88;100.00
15477;BME280;7840;42.702;23.296;2023-02-15T05:58:36;96396.13;;;2.00;100.00
15477;BME280;7840;42.702;23.296;2023-02-15T06:01:28;96395.94;;;2.02;100.00
15477;BME280;7840;42.702;23.296;2023-02-15T06:03:56;96399.72;;;2.07;100.00
15477;BME280;7840;42.702;23.296;2023-02-15T06:06:28;96400.56;;;2.24;100.00
15477;BME280;7840;42.702;23.296;2023-02-15T06:08:57;96403.34;;;2.23;100.00
15477;BME280;7840;42.702;23.296;2023-02-15T06:11:25;96393.03;;;2.13;100.00
15477;BME280;7840;42.702;23.296;2023-02-15T06:13:57;96403.31;;;2.14;100.00
15477;BME280;7840;42.702;23.296;2023-02-15T06:16:25;96389.44;;;2.30;100.00
15477;BME280;7840;42.702;23.296;2023-02-15T06:18:53;96398.44;;;2.36;100.00
15477;BME280;7840;42.702;23.296;2023-02-15T06:21:21;96400.41;;;2.34;100.00
15477;BME280;7840;42.702;23.296;2023-02-15T06:24:00;96405.81;;;2.40;100.00
15477;BME280;7840;42.702;23.296;2023-02-15T06:26:46;96411.84;;;2.41;100.00
15477;BME280;7840;42.702;23.296;2023-02-15T06:29:18;96399.75;;;2.24;100.00
15477;BME280;7840;42.702;23.296;2023-02-15T06:31:46;96402.53;;;2.22;100.00
15477;BME280;7840;42.702;23.296;2023-02-15T06:34:23;96403.03;;;2.42;100.00
15477;BME280;7840;42.702;23.296;2023-02-15T06:47:13;96403.69;;;2.36;100.00
15477;BME280;7840;42.702;23.296;2023-02-15T06:49:41;96395.66;;;2.37;100.00
15477;BME280;7840;42.702;23.296;2023-02-15T06:52:11;96400.41;;;2.34;100.00
15477;BME280;7840;42.702;23.296;2023-02-15T06:54:38;96406.78;;;2.47;100.00
15477;BME280;7840;42.702;23.296;2023-02-15T06:57:06;96400.41;;;2.42;100.00
15477;BME280;7840;42.702;23.296;2023-02-15T06:59:36;96404.19;;;2.56;100.00
15477;BME280;7840;42.702;23.296;2023-02-15T07:02:14;96414.47;;;2.65;100.00
15477;BME280;7840;42.702;23.296;2023-02-15T07:04:42;96408.75;;;2.70;100.00
15477;BME280;7840;42.702;23.296;2023-02-15T07:07:11;96407.44;;;2.66;100.00
15477;BME280;7840;42.702;23.296;2023-02-15T07:09:55;96411.19;;;2.80;100.00
15477;BME280;7840;42.702;23.296;2023-02-15T07:12:24;96408.75;;;2.78;100.00
15477;BME280;7840;42.702;23.296;2023-02-15T07:25:48;96416.09;;;2.91;100.00
15477;BME280;7840;42.702;23.296;2023-02-15T07:28:15;96412.63;;;2.98;100.00
15477;BME280;7840;42.702;23.296;2023-02-15T07:30:46;96419.69;;;2.98;100.00
15477;BME280;7840;42.702;23.296;2023-02-15T07:33:16;96417.69;;;3.00;100.00
15477;BME280;7840;42.702;23.296;2023-02-15T07:35:57;96410.78;;;3.15;100.00
15477;BME280;7840;42.702;23.296;2023-02-15T07:41:22;96400.06;;;3.02;100.00
15477;BME280;7840;42.702;23.296;2023-02-15T07:43:52;96400.19;;;3.09;100.00
15477;BME280;7840;42.702;23.296;2023-02-15T07:46:23;96410.47;;;3.18;100.00
15477;BME280;7840;42.702;23.296;2023-02-15T07:48:51;96404.25;;;3.19;100.00
15477;BME280;7840;42.702;23.296;2023-02-15T07:51:32;96397.34;;;3.26;100.00
15477;BME280;7840;42.702;23.296;2023-02-15T07:54:14;96413.03;;;3.35;100.00
15477;BME280;7840;42.702;23.296;2023-02-15T07:57:15;96399.66;;;3.21;100.00
15477;BME280;7840;42.702;23.296;2023-02-15T07:59:45;96401.94;;;3.33;100.00
15477;BME280;7840;42.702;23.296;2023-02-15T08:02:41;96400.00;;;3.18;100.00
15477;BME280;7840;42.702;23.296;2023-02-15T08:05:43;96399.78;;;3.44;100.00
15477;BME280;7840;42.702;23.296;2023-02-15T08:08:13;96392.00;;;3.59;100.00
15477;BME280;7840;42.702;23.296;2023-02-15T08:11:20;96395.31;;;3.53;100.00
15477;BME280;7840;42.702;23.296;2023-02-15T08:14:02;96415.66;;;3.35;100.00
15477;BME280;7840;42.702;23.296;2023-02-15T08:16:34;96407.38;;;3.23;100.00
15477;BME280;7840;42.702;23.296;2023-02-15T08:19:13;96405.25;;;3.18;100.00
15477;BME280;7840;42.702;23.296;2023-02-15T08:21:56;96409.75;;;3.41;100.00
15477;BME280;7840;42.702;23.296;2023-02-15T08:24:31;96395.22;;;3.38;100.00
15477;BME280;7840;42.702;23.296;2023-02-15T08:27:00;96408.72;;;3.58;100.00
15477;BME280;7840;42.702;23.296;2023-02-15T08:29:30;96406.25;;;3.65;100.00
15477;BME280;7840;42.702;23.296;2023-02-15T08:32:03;96412.72;;;3.38;100.00
15477;BME280;7840;42.702;23.296;2023-02-15T08:35:07;96414.03;;;3.34;100.00
15477;BME280;7840;42.702;23.296;2023-02-15T08:37:54;96410.72;;;3.48;100.00
15477;BME280;7840;42.702;23.296;2023-02-15T08:40:25;96401.19;;;3.55;100.00
15477;BME280;7840;42.702;23.296;2023-02-15T08:42:54;96406.56;;;3.62;100.00
15477;BME280;7840;42.702;23.296;2023-02-15T08:45:22;96401.31;;;3.62;100.00
15477;BME280;7840;42.702;23.296;2023-02-15T08:47:51;96414.63;;;3.52;100.00
15477;BME280;7840;42.702;23.296;2023-02-15T08:50:30;96418.88;;;3.53;100.00
15477;BME280;7840;42.702;23.296;2023-02-15T08:52:58;96421.69;;;3.51;100.00
15477;BME280;7840;42.702;23.296;2023-02-15T08:55:32;96412.22;;;3.81;100.00
15477;BME280;7840;42.702;23.296;2023-02-15T09:00:53;96411.19;;;4.22;100.00
15477;BME280;7840;42.702;23.296;2023-02-15T09:03:21;96414.31;;;4.17;100.00
15477;BME280;7840;42.702;23.296;2023-02-15T09:06:00;96413.19;;;4.11;100.00
15477;BME280;7840;42.702;23.296;2023-02-15T09:08:43;96426.47;;;4.10;100.00
15477;BME280;7840;42.702;23.296;2023-02-15T09:11:49;96415.59;;;3.90;100.00
15477;BME280;7840;42.702;23.296;2023-02-15T09:14:46;96406.06;;;3.97;100.00
15477;BME280;7840;42.702;23.296;2023-02-15T09:17:18;96407.63;;;4.15;100.00
15477;BME280;7840;42.702;23.296;2023-02-15T09:19:46;96415.94;;;4.18;100.00
15477;BME280;7840;42.702;23.296;2023-02-15T09:22:45;96406.38;;;4.25;100.00
15477;BME280;7840;42.702;23.296;2023-02-15T09:25:17;96421.59;;;4.30;100.00
15477;BME280;7840;42.702;23.296;2023-02-15T09:27:54;96419.56;;;4.17;100.00
15477;BME280;7840;42.702;23.296;2023-02-15T09:30:23;96416.19;;;4.31;100.00
15477;BME280;7840;42.702;23.296;2023-02-15T09:32:59;96416.72;;;4.50;100.00
15477;BME280;7840;42.702;23.296;2023-02-15T09:35:27;96410.00;;;4.24;100.00
15477;BME280;7840;42.702;23.296;2023-02-15T09:38:09;96410.19;;;4.46;100.00
15477;BME280;7840;42.702;23.296;2023-02-15T09:40:49;96418.22;;;4.21;100.00
15477;BME280;7840;42.702;23.296;2023-02-15T09:43:30;96411.81;;;4.24;100.00
15477;BME280;7840;42.702;23.296;2023-02-15T09:47:00;96413.22;;;4.34;100.00
15477;BME280;7840;42.702;23.296;2023-02-15T09:49:42;96406.94;;;4.44;100.00
15477;BME280;7840;42.702;23.296;2023-02-15T09:55:28;96397.50;;;4.72;99.10
15477;BME280;7840;42.702;23.296;2023-02-15T09:58:07;96399.31;;;4.72;99.45
15477;BME280;7840;42.702;23.296;2023-02-15T10:00:46;96393.19;;;4.79;98.00
15477;BME280;7840;42.702;23.296;2023-02-15T10:03:30;96397.22;;;4.90;96.10
15477;BME280;7840;42.702;23.296;2023-02-15T10:09:51;96403.78;;;4.86;94.27
15477;BME280;7840;42.702;23.296;2023-02-15T10:12:49;96401.38;;;4.99;91.27
15477;BME280;7840;42.702;23.296;2023-02-15T10:15:34;96402.38;;;5.13;90.72
15477;BME280;7840;42.702;23.296;2023-02-15T10:18:38;96388.16;;;5.07;89.87
15477;BME280;7840;42.702;23.296;2023-02-15T10:21:19;96385.53;;;4.92;91.24
15477;BME280;7840;42.702;23.296;2023-02-15T10:27:02;96388.25;;;5.14;89.83
15477;BME280;7840;42.702;23.296;2023-02-15T10:29:36;96388.81;;;5.24;89.36
15477;BME280;7840;42.702;23.296;2023-02-15T10:32:15;96378.31;;;5.24;89.62
15477;BME280;7840;42.702;23.296;2023-02-15T10:35:10;96392.28;;;5.25;89.62
15477;BME280;7840;42.702;23.296;2023-02-15T10:38:01;96373.41;;;5.21;90.61
15477;BME280;7840;42.702;23.296;2023-02-15T10:40:36;96378.84;;;5.34;89.48
15477;BME280;7840;42.702;23.296;2023-02-15T10:43:42;96370.44;;;5.39;91.83
15477;BME280;7840;42.702;23.296;2023-02-15T10:46:21;96370.84;;;5.72;88.77
15477;BME280;7840;42.702;23.296;2023-02-15T10:49:13;96363.91;;;5.64;87.62
15477;BME280;7840;42.702;23.296;2023-02-15T10:51:58;96362.56;;;5.90;86.36
15477;BME280;7840;42.702;23.296;2023-02-15T10:54:36;96349.53;;;5.82;86.66
15477;BME280;7840;42.702;23.296;2023-02-15T10:57:16;96358.97;;;5.76;86.86
15477;BME280;7840;42.702;23.296;2023-02-15T11:00:11;96367.19;;;5.37;89.87
15477;BME280;7840;42.702;23.296;2023-02-15T11:02:59;96362.91;;;5.51;86.03
15477;BME280;7840;42.702;23.296;2023-02-15T11:05:43;96360.53;;;5.56;87.83
15477;BME280;7840;42.702;23.296;2023-02-15T11:08:17;96368.69;;;5.61;86.55
15477;BME280;7840;42.702;23.296;2023-02-15T11:10:49;96367.84;;;5.75;86.02
15477;BME280;7840;42.702;23.296;2023-02-15T11:13:28;96364.13;;;5.84;85.16
15477;BME280;7840;42.702;23.296;2023-02-15T11:16:04;96354.94;;;5.59;86.15
15477;BME280;7840;42.702;23.296;2023-02-15T11:18:39;96344.03;;;5.62;87.07
15477;BME280;7840;42.702;23.296;2023-02-15T11:21:17;96362.47;;;5.83;84.95
15477;BME280;7840;42.702;23.296;2023-02-15T11:23:52;96347.03;;;6.10;83.68
15477;BME280;7840;42.702;23.296;2023-02-15T11:31:29;96346.88;;;6.11;82.40
15477;BME280;7840;42.702;23.296;2023-02-15T11:34:05;96377.19;;;5.92;82.56
15477;BME280;7840;42.702;23.296;2023-02-15T11:36:40;96359.22;;;5.81;83.96
15477;BME280;7840;42.702;23.296;2023-02-15T11:39:25;96335.53;;;5.60;83.29
15477;BME280;7840;42.702;23.296;2023-02-15T11:42:00;96347.28;;;5.93;81.76
15477;BME280;7840;42.702;23.296;2023-02-15T11:44:37;96348.16;;;6.00;81.26
15477;BME280;7840;42.702;23.296;2023-02-15T11:47:09;96336.63;;;6.23;80.43
15477;BME280;7840;42.702;23.296;2023-02-15T11:49:38;96334.56;;;5.82;82.61
15477;BME280;7840;42.702;23.296;2023-02-15T11:52:10;96333.13;;;5.94;81.44
15477;BME280;7840;42.702;23.296;2023-02-15T11:54:42;96330.69;;;5.78;83.67
15477;BME280;7840;42.702;23.296;2023-02-15T11:57:16;96330.81;;;6.06;82.29
15477;BME280;7840;42.702;23.296;2023-02-15T11:59:49;96319.22;;;6.00;81.74
15477;BME280;7840;42.702;23.296;2023-02-15T12:02:20;96316.72;;;6.35;79.33
15477;BME280;7840;42.702;23.296;2023-02-15T12:04:58;96313.78;;;6.23;79.01
15477;BME280;7840;42.702;23.296;2023-02-15T12:07:52;96302.50;;;6.08;80.32
15477;BME280;7840;42.702;23.296;2023-02-15T12:10:26;96300.25;;;6.26;80.07
15477;BME280;7840;42.702;23.296;2023-02-15T12:13:13;96307.56;;;6.31;79.33
15477;BME280;7840;42.702;23.296;2023-02-15T12:15:46;96309.09;;;6.19;79.55
15477;BME280;7840;42.702;23.296;2023-02-15T12:18:24;96297.03;;;6.31;78.74
15477;BME280;7840;42.702;23.296;2023-02-15T12:21:03;96304.94;;;6.10;79.91
15477;BME280;7840;42.702;23.296;2023-02-15T12:23:51;96290.78;;;6.11;79.92
15477;BME280;7840;42.702;23.296;2023-02-15T12:26:30;96292.63;;;6.38;79.51
15477;BME280;7840;42.702;23.296;2023-02-15T12:29:12;96286.09;;;6.83;77.28
15477;BME280;7840;42.702;23.296;2023-02-15T12:31:49;96290.38;;;6.56;76.67
15477;BME280;7840;42.702;23.296;2023-02-15T12:34:22;96289.94;;;6.53;77.55
15477;BME280;7840;42.702;23.296;2023-02-15T12:36:54;96286.59;;;6.94;76.59
15477;BME280;7840;42.702;23.296;2023-02-15T12:39:55;96282.28;;;6.58;75.98
15477;BME280;7840;42.702;23.296;2023-02-15T12:42:44;96275.06;;;6.67;75.70
15477;BME280;7840;42.702;23.296;2023-02-15T12:45:25;96268.06;;;6.80;75.34
15477;BME280;7840;42.702;23.296;2023-02-15T12:48:16;96262.06;;;7.00;75.21
15477;BME280;7840;42.702;23.296;2023-02-15T12:51:08;96253.69;;;7.24;73.24
15477;BME280;7840;42.702;23.296;2023-02-15T12:53:36;96254.22;;;7.06;73.33
15477;BME280;7840;42.702;23.296;2023-02-15T12:56:06;96260.28;;;6.72;74.30
15477;BME280;7840;42.702;23.296;2023-02-15T12:59:17;96261.13;;;6.73;74.27
15477;BME280;7840;42.702;23.296;2023-02-15T13:02:00;96257.28;;;7.10;74.27
15477;BME280;7840;42.702;23.296;2023-02-15T13:04:48;96257.94;;;7.25;71.26
15477;BME280;7840;42.702;23.296;2023-02-15T13:07:31;96252.59;;;7.05;72.28
15477;BME280;7840;42.702;23.296;2023-02-15T13:10:24;96244.06;;;7.03;73.00
15477;BME280;7840;42.702;23.296;2023-02-15T13:12:55;96251.44;;;7.15;72.54
15477;BME280;7840;42.702;23.296;2023-02-15T13:15:34;96253.84;;;7.09;73.06
15477;BME280;7840;42.702;23.296;2023-02-15T13:18:04;96248.88;;;6.87;73.05
15477;BME280;7840;42.702;23.296;2023-02-15T13:20:35;96231.28;;;6.94;73.38
15477;BME280;7840;42.702;23.296;2023-02-15T13:23:22;96244.47;;;7.00;72.67
15477;BME280;7840;42.702;23.296;2023-02-15T13:36:23;96244.06;;;7.51;69.58
15477;BME280;7840;42.702;23.296;2023-02-15T13:39:19;96237.44;;;7.82;70.10
15477;BME280;7840;42.702;23.296;2023-02-15T13:41:57;96239.41;;;7.53;71.34
15477;BME280;7840;42.702;23.296;2023-02-15T13:44:44;96240.75;;;8.10;68.80
15477;BME280;7840;42.702;23.296;2023-02-15T13:47:30;96253.63;;;7.65;71.57
15477;BME280;7840;42.702;23.296;2023-02-15T13:50:54;96250.66;;;8.02;70.08
15477;BME280;7840;42.702;23.296;2023-02-15T13:53:50;96262.00;;;7.76;70.58
15477;BME280;7840;42.702;23.296;2023-02-15T13:56:36;96263.03;;;7.94;70.43
15477;BME280;7840;42.702;23.296;2023-02-15T13:59:20;96261.81;;;7.84;70.67
15477;BME280;7840;42.702;23.296;2023-02-15T14:01:57;96254.88;;;7.70;70.60
15477;BME280;7840;42.702;23.296;2023-02-15T14:07:56;96262.69;;;7.43;72.35
15477;BME280;7840;42.702;23.296;2023-02-15T14:10:51;96277.09;;;7.47;72.37
15477;BME280;7840;42.702;23.296;2023-02-15T14:16:23;96280.84;;;7.73;71.59
15477;BME280;7840;42.702;23.296;2023-02-15T14:19:09;96274.84;;;8.18;70.09
15477;BME280;7840;42.702;23.296;2023-02-15T14:21:57;96287.78;;;7.93;69.90
15477;BME280;7840;42.702;23.296;2023-02-15T14:24:40;96277.25;;;8.07;69.40
15477;BME280;7840;42.702;23.296;2023-02-15T14:27:43;96282.09;;;7.83;70.53
15477;BME280;7840;42.702;23.296;2023-02-15T14:30:18;96293.06;;;7.87;71.11
15477;BME280;7840;42.702;23.296;2023-02-15T14:33:01;96291.75;;;7.56;71.21
15477;BME280;7840;42.702;23.296;2023-02-15T14:35:47;96290.97;;;7.62;71.37
15477;BME280;7840;42.702;23.296;2023-02-15T14:38:24;96279.84;;;7.26;73.67
15477;BME280;7840;42.702;23.296;2023-02-15T14:40:59;96273.94;;;7.17;73.31
15477;BME280;7840;42.702;23.296;2023-02-15T14:43:43;96280.41;;;7.56;72.43
15477;BME280;7840;42.702;23.296;2023-02-15T14:46:32;96278.88;;;8.08;70.70
15477;BME280;7840;42.702;23.296;2023-02-15T14:49:17;96280.38;;;7.49;71.92
15477;BME280;7840;42.702;23.296;2023-02-15T14:52:05;96286.03;;;7.46;72.32
15477;BME280;7840;42.702;23.296;2023-02-15T14:54:57;96279.91;;;7.39;72.57